Time;durP1;ratioP1;P1;durP2;ratioP2;P2;SDS_P1;SDS_P2;PMS_P1;PMS_P2;Temp;Humidity;BMP_temperature;BMP_pressure;BME280_temperature;BME280_humidity;BME280_pressure;Samples;Min_cycle;Max_cycle;Signal;HPM_P1;HPM_P2
2023/11/22 00:02:02;;;;;;;16.30;7.57;;;5.90;99.90;;;;;;5032192;28;20117;-55
2023/11/22 00:04:27;;;;;;;16.27;6.80;;;5.80;99.90;;;;;;5032063;28;20470;-54
2023/11/22 00:06:53;;;;;;;16.47;6.97;;;5.80;99.90;;;;;;5032008;28;20032;-54
2023/11/22 00:09:22;;;;;;;15.17;6.87;;;5.70;99.90;;;;;;5031410;28;20116;-54
2023/11/22 00:11:49;;;;;;;17.08;7.28;;;5.70;99.90;;;;;;5031930;28;20033;-53
2023/11/22 00:14:14;;;;;;;15.17;7.50;;;5.60;99.90;;;;;;5030691;28;20034;-54
2023/11/22 00:16:40;;;;;;;16.43;7.37;;;5.60;99.90;;;;;;5031837;28;20394;-54
2023/11/22 00:19:06;;;;;;;14.60;6.67;;;5.50;99.90;;;;;;5031431;28;20037;-55
2023/11/22 00:21:32;;;;;;;14.43;6.47;;;5.50;99.90;;;;;;5031755;28;20390;-50
2023/11/22 00:23:58;;;;;;;17.30;7.17;;;5.50;99.90;;;;;;5030641;28;20495;-50
2023/11/22 00:26:23;;;;;;;17.07;6.93;;;5.40;99.90;;;;;;5030798;28;20037;-54
2023/11/22 00:28:55;;;;;;;16.20;7.20;;;5.40;99.90;;;;;;5031674;28;20064;-51
2023/11/22 00:31:20;;;;;;;17.73;7.37;;;5.40;99.90;;;;;;5031870;28;20025;-54
2023/11/22 00:33:46;;;;;;;15.70;7.23;;;5.30;99.90;;;;;;5031752;28;20076;-54
2023/11/22 00:36:12;;;;;;;16.33;6.93;;;5.30;99.90;;;;;;5030173;28;20030;-50
2023/11/22 00:38:39;;;;;;;15.30;6.50;;;5.30;99.90;;;;;;5029902;28;20025;-54
2023/11/22 00:41:05;;;;;;;14.37;7.10;;;5.30;99.90;;;;;;5029577;28;20132;-52
2023/11/22 00:43:31;;;;;;;17.63;7.30;;;5.30;99.90;;;;;;5030302;28;20061;-52
2023/11/22 00:45:57;;;;;;;16.17;7.17;;;5.30;99.90;;;;;;5030171;28;20040;-55
2023/11/22 00:48:22;;;;;;;16.30;6.47;;;5.20;99.90;;;;;;5031280;28;20402;-52
2023/11/22 00:50:48;;;;;;;16.87;7.03;;;5.20;99.90;;;;;;5030969;28;20037;-55
2023/11/22 00:53:14;;;;;;;14.13;6.97;;;5.10;99.90;;;;;;5030114;28;20025;-52
2023/11/22 00:55:42;;;;;;;14.40;6.13;;;5.10;99.90;;;;;;5031279;28;20045;-54
2023/11/22 00:58:09;;;;;;;17.38;7.00;;;5.00;99.90;;;;;;5031260;28;20057;-53
2023/11/22 01:00:34;;;;;;;13.17;6.10;;;5.00;99.90;;;;;;5031115;28;20535;-54
2023/11/22 01:03:00;;;;;;;15.63;6.03;;;4.90;99.90;;;;;;5031244;28;20030;-54
2023/11/22 01:05:26;;;;;;;15.93;6.53;;;4.90;99.90;;;;;;5030992;28;20524;-50
2023/11/22 01:07:51;;;;;;;13.33;6.30;;;4.80;99.90;;;;;;5030138;28;20049;-51
2023/11/22 01:10:17;;;;;;;15.47;5.47;;;4.70;99.90;;;;;;5030931;28;20029;-54
2023/11/22 01:12:43;;;;;;;12.47;5.73;;;4.70;99.90;;;;;;5029961;28;20386;-52
2023/11/22 01:15:09;;;;;;;13.17;5.87;;;4.70;99.90;;;;;;5030005;28;20037;-48
2023/11/22 01:17:36;;;;;;;12.63;6.20;;;4.60;99.90;;;;;;5031020;28;20029;-49
2023/11/22 01:20:03;;;;;;;13.67;6.07;;;4.60;99.90;;;;;;5030571;28;20083;-54
2023/11/22 01:22:29;;;;;;;14.23;6.07;;;4.60;99.90;;;;;;5030937;28;20051;-52
2023/11/22 01:24:54;;;;;;;14.50;5.20;;;4.50;99.90;;;;;;5029655;28;20485;-51
2023/11/22 01:27:20;;;;;;;13.37;5.70;;;4.50;99.90;;;;;;5031051;28;20079;-55
2023/11/22 01:29:46;;;;;;;11.57;5.43;;;4.40;99.90;;;;;;5029165;28;20482;-55
2023/11/22 01:32:12;;;;;;;13.07;5.57;;;4.40;99.90;;;;;;5029591;28;20048;-54
2023/11/22 01:34:38;;;;;;;10.77;4.97;;;4.40;99.90;;;;;;5029314;28;20045;-53
2023/11/22 01:37:04;;;;;;;14.97;6.60;;;4.30;99.90;;;;;;5029601;28;20108;-52
2023/11/22 01:39:30;;;;;;;13.40;6.00;;;4.30;99.90;;;;;;5029077;28;20427;-53
2023/11/22 01:41:56;;;;;;;16.90;6.03;;;4.20;99.90;;;;;;5013196;28;20025;-54
2023/11/22 01:44:22;;;;;;;14.50;5.90;;;4.20;99.90;;;;;;5029157;28;20021;-55
2023/11/22 01:46:48;;;;;;;16.70;6.80;;;4.20;99.90;;;;;;5030639;28;20397;-52
2023/11/22 01:49:14;;;;;;;14.60;6.47;;;4.10;99.90;;;;;;5028926;28;20040;-52
2023/11/22 01:51:40;;;;;;;15.67;5.63;;;4.10;99.90;;;;;;5031526;28;20048;-55
2023/11/22 01:54:07;;;;;;;16.30;5.70;;;4.10;99.90;;;;;;5033170;28;20033;-54
2023/11/22 01:56:35;;;;;;;16.07;6.13;;;4.10;99.90;;;;;;5034693;28;20080;-55
2023/11/22 01:59:01;;;;;;;16.17;6.27;;;4.00;99.90;;;;;;5033353;28;20382;-54
2023/11/22 02:01:27;;;;;;;14.80;6.13;;;4.00;99.90;;;;;;5033317;28;20021;-52
2023/11/22 02:03:53;;;;;;;13.53;5.90;;;4.00;99.90;;;;;;5033086;28;20482;-55
2023/11/22 02:06:21;;;;;;;14.93;6.27;;;4.00;99.90;;;;;;5033018;28;20026;-51
2023/11/22 02:08:47;;;;;;;15.43;6.40;;;4.00;99.90;;;;;;5032701;28;20415;-54
2023/11/22 02:11:13;;;;;;;16.53;6.03;;;4.00;99.90;;;;;;5032867;28;20083;-55
2023/11/22 02:13:38;;;;;;;15.77;6.50;;;3.90;99.90;;;;;;5032903;28;20053;-55
2023/11/22 02:16:05;;;;;;;15.27;5.83;;;4.00;99.90;;;;;;5033369;28;20053;-54
2023/11/22 02:18:31;;;;;;;12.70;5.90;;;4.00;99.90;;;;;;5032660;28;20099;-55
2023/11/22 02:20:56;;;;;;;14.33;6.30;;;3.90;99.90;;;;;;5032860;28;20493;-54
2023/11/22 02:23:22;;;;;;;14.23;5.93;;;4.00;99.90;;;;;;5032883;28;20099;-54
2023/11/22 02:25:48;;;;;;;16.27;6.43;;;3.90;99.90;;;;;;5032814;28;20033;-54
2023/11/22 02:28:14;;;;;;;13.90;5.70;;;3.90;99.90;;;;;;5032426;28;20120;-55
2023/11/22 02:30:40;;;;;;;14.30;5.97;;;3.90;99.90;;;;;;5033653;28;20117;-55
2023/11/22 02:33:06;;;;;;;12.17;5.97;;;3.90;99.90;;;;;;5032593;28;20386;-55
2023/11/22 02:35:32;;;;;;;14.17;6.10;;;3.90;99.90;;;;;;5033970;28;20025;-52
2023/11/22 02:37:59;;;;;;;13.03;5.83;;;3.80;99.90;;;;;;5033849;28;20095;-56
2023/11/22 02:40:25;;;;;;;16.50;5.77;;;3.80;99.90;;;;;;5031846;28;20033;-53
2023/11/22 02:42:52;;;;;;;18.40;6.87;;;3.80;99.90;;;;;;5032332;28;20060;-54
2023/11/22 02:45:20;;;;;;;12.03;5.60;;;3.80;99.90;;;;;;5032290;28;20130;-50
2023/11/22 02:47:46;;;;;;;11.63;5.93;;;3.80;99.90;;;;;;5033667;28;20061;-50
2023/11/22 02:50:13;;;;;;;16.70;6.77;;;3.70;99.90;;;;;;5031954;28;20186;-53
2023/11/22 02:52:39;;;;;;;15.13;6.17;;;3.70;99.90;;;;;;5032148;28;20034;-54
2023/11/22 02:55:05;;;;;;;13.37;5.40;;;3.70;99.90;;;;;;5033493;28;20402;-54
2023/11/22 02:57:31;;;;;;;16.47;6.70;;;3.70;99.90;;;;;;5033109;28;20053;-51
2023/11/22 02:59:58;;;;;;;16.83;6.30;;;3.60;99.90;;;;;;5031689;28;20494;-54
2023/11/22 03:02:23;;;;;;;15.43;6.77;;;3.60;99.90;;;;;;5014904;28;20316;-51
2023/11/22 03:04:50;;;;;;;18.73;7.00;;;3.60;99.90;;;;;;5033277;28;20104;-51
2023/11/22 03:07:16;;;;;;;13.93;5.77;;;3.60;99.90;;;;;;5032247;28;20124;-50
2023/11/22 03:09:44;;;;;;;12.77;5.47;;;3.60;99.90;;;;;;5031577;28;20029;-52
2023/11/22 03:12:12;;;;;;;16.03;7.07;;;3.60;99.90;;;;;;5032001;28;20038;-53
2023/11/22 03:14:38;;;;;;;18.13;6.87;;;3.60;99.90;;;;;;5033298;28;20412;-52
2023/11/22 03:17:04;;;;;;;15.77;6.67;;;3.50;99.90;;;;;;5033125;28;20037;-55
2023/11/22 03:19:30;;;;;;;18.37;7.43;;;3.50;99.90;;;;;;5032778;28;20025;-54
2023/11/22 03:21:56;;;;;;;19.10;7.23;;;3.50;99.90;;;;;;5031925;28;20500;-54
2023/11/22 03:24:22;;;;;;;18.63;6.90;;;3.50;99.90;;;;;;5033270;28;20038;-53
2023/11/22 03:26:48;;;;;;;17.07;6.53;;;3.40;99.90;;;;;;5033442;28;20441;-55
2023/11/22 03:29:16;;;;;;;17.20;7.80;;;3.40;99.90;;;;;;5033044;28;20029;-54
2023/11/22 03:31:42;;;;;;;16.70;6.53;;;3.40;99.90;;;;;;5032829;28;20037;-55
2023/11/22 03:34:07;;;;;;;17.97;7.20;;;3.40;99.90;;;;;;5031632;28;20040;-54
2023/11/22 03:36:33;;;;;;;18.43;6.67;;;3.40;99.90;;;;;;5032913;28;20045;-54
2023/11/22 03:38:59;;;;;;;20.33;7.20;;;3.40;99.90;;;;;;5015024;28;20075;-53
2023/11/22 03:41:24;;;;;;;16.97;6.57;;;3.40;99.90;;;;;;5031669;28;20029;-53
2023/11/22 03:43:50;;;;;;;17.43;7.13;;;3.50;99.90;;;;;;5015109;28;20060;-53
2023/11/22 03:46:15;;;;;;;17.17;7.37;;;3.50;99.90;;;;;;5032556;28;20037;-55
2023/11/22 03:48:41;;;;;;;18.27;6.60;;;3.50;99.90;;;;;;5032447;28;20025;-55
2023/11/22 03:51:07;;;;;;;15.53;6.57;;;3.40;99.90;;;;;;5031129;28;20040;-55
2023/11/22 03:53:32;;;;;;;15.53;7.27;;;3.40;99.90;;;;;;5032394;28;20040;-55
2023/11/22 03:55:58;;;;;;;18.87;6.60;;;3.40;99.90;;;;;;5032413;28;20033;-54
2023/11/22 03:58:24;;;;;;;13.57;6.37;;;3.40;99.90;;;;;;5032115;28;20071;-55
2023/11/22 04:00:52;;;;;;;16.07;6.97;;;3.40;99.90;;;;;;5030481;28;20025;-55
2023/11/22 04:03:18;;;;;;;18.60;7.73;;;3.40;99.90;;;;;;5032521;28;20038;-50
2023/11/22 04:05:44;;;;;;;15.43;6.50;;;3.30;99.90;;;;;;5032159;28;20030;-51
2023/11/22 04:08:10;;;;;;;18.10;6.53;;;3.30;99.90;;;;;;5031919;28;20449;-50
2023/11/22 04:10:36;;;;;;;16.57;7.37;;;3.30;99.90;;;;;;5031526;28;20083;-50
2023/11/22 04:13:02;;;;;;;16.87;6.10;;;3.30;99.90;;;;;;5032052;28;20029;-50
2023/11/22 04:15:28;;;;;;;17.27;7.57;;;3.20;99.90;;;;;;5031633;28;20132;-50
2023/11/22 04:17:54;;;;;;;17.10;6.60;;;3.20;99.90;;;;;;5031645;28;20113;-52
2023/11/22 04:20:20;;;;;;;14.73;6.63;;;3.20;99.90;;;;;;5031227;28;20615;-51
2023/11/22 04:22:46;;;;;;;19.33;7.17;;;3.20;99.90;;;;;;5031623;28;20040;-52
2023/11/22 04:25:14;;;;;;;20.00;7.43;;;3.20;99.90;;;;;;5031599;28;20053;-50
2023/11/22 04:27:41;;;;;;;17.15;6.75;;;3.10;99.90;;;;;;5031540;28;20044;-54
2023/11/22 04:30:14;;;;;;;16.17;6.37;;;3.10;99.90;;;;;;5030992;28;20067;-51
2023/11/22 04:32:43;;;;;;;18.30;6.57;;;3.10;99.90;;;;;;5031517;28;20037;-51
2023/11/22 04:35:09;;;;;;;15.20;6.80;;;3.00;99.90;;;;;;5030003;28;20034;-51
2023/11/22 04:37:36;;;;;;;17.00;6.23;;;3.00;99.90;;;;;;5031410;28;20210;-50
2023/11/22 04:40:03;;;;;;;18.30;6.40;;;3.00;99.90;;;;;;5030884;28;20087;-51
2023/11/22 04:42:29;;;;;;;15.33;6.53;;;3.00;99.90;;;;;;5031257;28;20036;-50
2023/11/22 04:44:54;;;;;;;20.47;6.80;;;3.00;99.90;;;;;;5031162;28;20026;-51
2023/11/22 04:47:21;;;;;;;17.73;6.87;;;3.00;99.90;;;;;;5031342;28;20048;-54
2023/11/22 04:49:48;;;;;;;16.80;6.23;;;2.90;99.90;;;;;;5030776;28;20041;-52
2023/11/22 04:52:13;;;;;;;17.20;6.60;;;2.90;99.90;;;;;;5029912;28;20056;-54
2023/11/22 04:54:39;;;;;;;15.50;6.03;;;2.90;99.90;;;;;;5031345;28;20482;-51
2023/11/22 04:57:05;;;;;;;17.57;6.43;;;2.90;99.90;;;;;;5031639;28;20104;-51
2023/11/22 04:59:31;;;;;;;16.17;6.37;;;2.90;99.90;;;;;;5030780;28;20544;-52
2023/11/22 05:01:57;;;;;;;14.60;5.77;;;2.90;99.90;;;;;;5031256;28;20040;-51
2023/11/22 05:04:23;;;;;;;17.63;6.83;;;2.90;99.90;;;;;;5031074;28;20112;-51
2023/11/22 05:06:48;;;;;;;14.10;6.00;;;2.90;99.90;;;;;;5031111;28;20033;-50
2023/11/22 05:09:14;;;;;;;15.90;6.23;;;2.90;99.90;;;;;;5031002;28;20112;-53
2023/11/22 05:11:44;;;;;;;14.60;5.43;;;2.90;99.90;;;;;;5031117;28;20026;-54
2023/11/22 05:14:10;;;;;;;18.20;6.57;;;2.90;99.90;;;;;;5030993;28;20060;-54
2023/11/22 05:16:36;;;;;;;13.67;6.10;;;2.90;99.90;;;;;;5031129;28;20067;-54
2023/11/22 05:19:01;;;;;;;13.33;5.23;;;2.80;99.90;;;;;;5030587;28;20029;-53
2023/11/22 05:21:27;;;;;;;17.00;5.87;;;2.80;99.90;;;;;;5030875;28;20037;-54
2023/11/22 05:23:54;;;;;;;15.97;6.33;;;2.80;99.90;;;;;;5030733;28;20034;-53
2023/11/22 05:26:21;;;;;;;17.80;6.73;;;2.80;99.90;;;;;;5028896;28;20042;-54
2023/11/22 05:28:47;;;;;;;15.60;5.93;;;2.70;99.90;;;;;;5030160;28;20073;-54
2023/11/22 05:31:14;;;;;;;12.33;5.23;;;2.70;99.90;;;;;;5031216;28;20036;-53
2023/11/22 05:33:40;;;;;;;15.77;6.33;;;2.70;99.90;;;;;;5030720;28;20052;-53
2023/11/22 05:36:06;;;;;;;16.80;6.13;;;2.70;99.90;;;;;;5030549;28;20026;-52
2023/11/22 05:38:34;;;;;;;14.47;5.70;;;2.70;99.90;;;;;;5029955;28;20044;-55
2023/11/22 05:41:01;;;;;;;14.87;5.87;;;2.70;99.90;;;;;;5030496;28;20029;-50
2023/11/22 05:43:26;;;;;;;15.63;5.50;;;2.70;99.90;;;;;;5030425;28;20090;-52
2023/11/22 05:45:55;;;;;;;13.43;5.63;;;2.70;99.90;;;;;;5030701;28;20029;-50
2023/11/22 05:48:21;;;;;;;12.18;4.72;;;2.60;99.90;;;;;;5030347;28;20503;-55
2023/11/22 05:50:48;;;;;;;14.37;5.10;;;2.60;99.90;;;;;;5030226;28;20053;-55
2023/11/22 05:53:19;;;;;;;17.27;5.70;;;2.60;99.90;;;;;;5030534;28;20040;-53
2023/11/22 05:55:47;;;;;;;15.10;6.23;;;2.50;99.90;;;;;;5030433;28;20037;-55
2023/11/22 05:58:16;;;;;;;14.53;5.60;;;2.50;99.90;;;;;;5030057;28;20025;-54
2023/11/22 06:00:45;;;;;;;16.42;6.30;;;2.50;99.90;;;;;;5030286;28;20488;-52
2023/11/22 06:03:11;;;;;;;13.27;6.00;;;2.50;99.90;;;;;;5029228;28;20065;-53
2023/11/22 06:05:37;;;;;;;14.00;5.47;;;2.40;99.90;;;;;;5029184;28;20487;-53
2023/11/22 06:08:03;;;;;;;13.87;5.67;;;2.40;99.90;;;;;;5030189;28;20039;-51
2023/11/22 06:10:28;;;;;;;15.80;5.60;;;2.40;99.90;;;;;;5029863;28;20417;-50
2023/11/22 06:12:54;;;;;;;13.83;5.90;;;2.40;99.90;;;;;;5030213;28;20099;-53
2023/11/22 06:15:21;;;;;;;15.30;5.10;;;2.40;99.90;;;;;;5030195;28;20125;-54
2023/11/22 06:17:48;;;;;;;12.67;4.73;;;2.40;99.90;;;;;;5030363;28;20521;-55
2023/11/22 06:20:14;;;;;;;12.73;5.33;;;2.40;99.90;;;;;;5028552;28;20394;-51
2023/11/22 06:22:42;;;;;;;12.07;5.53;;;2.30;99.90;;;;;;5030302;28;20076;-54
2023/11/22 06:25:11;;;;;;;14.30;5.53;;;2.40;99.90;;;;;;5030386;28;20037;-53
2023/11/22 06:27:38;;;;;;;11.80;5.57;;;2.30;99.90;;;;;;5030483;28;20054;-54
2023/11/22 06:30:06;;;;;;;13.07;5.63;;;2.30;99.90;;;;;;5030115;28;20099;-50
2023/11/22 06:32:32;;;;;;;14.57;5.13;;;2.30;99.90;;;;;;5030192;28;20117;-53
2023/11/22 06:34:57;;;;;;;11.67;4.83;;;2.20;99.90;;;;;;5030076;28;20056;-55
2023/11/22 06:37:23;;;;;;;15.33;5.87;;;2.20;99.90;;;;;;5031380;28;20108;-54
2023/11/22 06:39:50;;;;;;;11.27;4.73;;;2.20;99.90;;;;;;5031809;28;20526;-55
2023/11/22 06:42:16;;;;;;;16.03;4.83;;;2.10;99.90;;;;;;5033539;28;20493;-54
2023/11/22 06:44:42;;;;;;;17.57;5.30;;;2.10;99.90;;;;;;5033846;28;20029;-54
2023/11/22 06:47:07;;;;;;;14.67;4.80;;;2.10;99.90;;;;;;5032244;28;20041;-55
2023/11/22 06:49:33;;;;;;;12.77;5.30;;;2.10;99.90;;;;;;5032978;28;20029;-55
2023/11/22 06:52:00;;;;;;;16.70;6.50;;;2.10;99.90;;;;;;5033626;28;20025;-54
2023/11/22 06:54:25;;;;;;;14.20;5.43;;;2.10;99.90;;;;;;5033298;28;20117;-54
2023/11/22 06:56:51;;;;;;;14.40;5.43;;;2.00;99.90;;;;;;5033083;28;20539;-53
2023/11/22 06:59:17;;;;;;;13.20;5.30;;;2.00;99.90;;;;;;5032869;28;20308;-51
2023/11/22 07:01:43;;;;;;;12.80;5.60;;;2.00;99.90;;;;;;5033164;28;20113;-55
2023/11/22 07:04:09;;;;;;;12.93;5.43;;;2.00;99.90;;;;;;5033617;28;20160;-55
2023/11/22 07:06:37;;;;;;;13.17;5.10;;;2.00;99.90;;;;;;5033246;28;20036;-53
2023/11/22 07:09:03;;;;;;;11.33;4.70;;;1.90;99.90;;;;;;5033299;28;20382;-50
2023/11/22 07:11:31;;;;;;;12.97;4.90;;;1.90;99.90;;;;;;5033245;28;20041;-53
2023/11/22 07:13:57;;;;;;;12.00;4.87;;;1.90;99.90;;;;;;5033172;28;20386;-54
2023/11/22 07:16:24;;;;;;;11.97;5.00;;;1.90;99.90;;;;;;5032953;28;20035;-55
2023/11/22 07:18:50;;;;;;;12.67;5.30;;;1.90;99.90;;;;;;5030880;28;20068;-53
2023/11/22 07:21:16;;;;;;;14.10;6.00;;;1.90;99.90;;;;;;5032823;28;20053;-55
2023/11/22 07:23:45;;;;;;;14.50;5.17;;;1.90;99.90;;;;;;5031620;28;20445;-50
2023/11/22 07:26:10;;;;;;;14.23;5.13;;;1.90;99.90;;;;;;5032579;28;20035;-51
2023/11/22 07:28:36;;;;;;;12.57;5.03;;;1.90;99.90;;;;;;5032231;28;20029;-55
2023/11/22 07:31:03;;;;;;;13.23;4.90;;;1.90;99.90;;;;;;5032612;28;20029;-55
2023/11/22 07:33:31;;;;;;;14.07;5.60;;;1.90;99.90;;;;;;5032528;28;20506;-54
2023/11/22 07:35:58;;;;;;;17.17;5.83;;;2.00;99.90;;;;;;5031293;28;20037;-52
2023/11/22 07:38:24;;;;;;;10.97;5.07;;;2.00;99.90;;;;;;5032230;28;20502;-53
2023/11/22 07:40:51;;;;;;;20.30;5.83;;;2.00;99.90;;;;;;5032195;28;20057;-52
2023/11/22 07:43:17;;;;;;;14.27;5.43;;;2.10;99.90;;;;;;5032227;28;20455;-55
2023/11/22 07:45:43;;;;;;;13.00;5.50;;;2.10;99.90;;;;;;5032234;28;20037;-54
2023/11/22 07:48:11;;;;;;;13.17;5.33;;;2.10;99.90;;;;;;5032280;28;20037;-55
2023/11/22 07:50:43;;;;;;;14.37;5.40;;;2.20;99.90;;;;;;5031625;28;20076;-55
2023/11/22 07:53:11;;;;;;;15.87;5.80;;;2.20;99.90;;;;;;5032199;28;20041;-53
2023/11/22 07:55:37;;;;;;;11.07;5.00;;;2.20;99.90;;;;;;5032103;28;20033;-55
2023/11/22 07:58:06;;;;;;;13.50;5.07;;;2.20;99.90;;;;;;5032005;28;20079;-53
2023/11/22 08:00:33;;;;;;;13.17;5.20;;;2.20;99.90;;;;;;5031417;28;20029;-56
2023/11/22 08:03:02;;;;;;;12.10;5.20;;;2.30;99.90;;;;;;5030790;28;20428;-53
2023/11/22 08:05:29;;;;;;;13.50;5.43;;;2.30;99.90;;;;;;5031935;28;20033;-53
2023/11/22 08:07:54;;;;;;;14.33;5.67;;;2.40;99.90;;;;;;5031927;28;20044;-55
2023/11/22 08:10:20;;;;;;;13.23;5.60;;;2.50;99.90;;;;;;5031333;28;20029;-55
2023/11/22 08:12:47;;;;;;;13.83;5.60;;;2.50;99.90;;;;;;5031859;28;20037;-54
2023/11/22 08:15:14;;;;;;;13.33;5.17;;;2.50;99.90;;;;;;5032320;28;20459;-55
2023/11/22 08:17:43;;;;;;;14.73;5.10;;;2.60;99.90;;;;;;5031716;28;20030;-53
2023/11/22 08:20:13;;;;;;;16.23;5.28;;;2.60;99.90;;;;;;5031354;28;20414;-53
2023/11/22 08:22:41;;;;;;;15.30;5.70;;;2.70;99.90;;;;;;5031934;28;20026;-52
2023/11/22 08:25:08;;;;;;;8.88;4.80;;;2.80;99.90;;;;;;5031510;28;20167;-53
2023/11/22 08:27:34;;;;;;;14.37;4.67;;;2.80;99.90;;;;;;5031532;28;20025;-50
2023/11/22 08:30:04;;;;;;;13.47;4.50;;;2.80;99.90;;;;;;5029918;28;20300;-55
2023/11/22 08:32:31;;;;;;;11.37;4.57;;;2.90;99.90;;;;;;5031470;28;20486;-55
2023/11/22 08:34:57;;;;;;;10.43;4.40;;;3.00;99.90;;;;;;5031246;28;20037;-54
2023/11/22 08:37:24;;;;;;;11.37;4.40;;;3.00;99.90;;;;;;5031317;28;20251;-54
2023/11/22 08:39:49;;;;;;;10.50;4.47;;;3.10;99.90;;;;;;5030843;28;20047;-54
2023/11/22 08:42:15;;;;;;;9.87;4.30;;;3.10;99.90;;;;;;5031181;28;20021;-53
2023/11/22 08:44:41;;;;;;;8.63;3.77;;;3.20;99.90;;;;;;5031319;28;20053;-52
2023/11/22 08:47:08;;;;;;;12.43;4.60;;;3.20;99.90;;;;;;5031345;28;20067;-55
2023/11/22 08:49:34;;;;;;;10.77;4.03;;;3.30;99.90;;;;;;5030980;28;20038;-53
2023/11/22 08:52:02;;;;;;;10.53;4.70;;;3.40;99.90;;;;;;5031204;28;20413;-54
2023/11/22 08:54:29;;;;;;;12.50;3.90;;;3.50;99.90;;;;;;5030906;28;20049;-54
2023/11/22 08:56:58;;;;;;;11.03;4.43;;;3.60;99.90;;;;;;5030956;28;20048;-53
2023/11/22 08:59:24;;;;;;;10.02;4.22;;;3.60;99.90;;;;;;5030615;28;20025;-53
2023/11/22 09:01:49;;;;;;;10.50;4.13;;;3.70;99.90;;;;;;5029141;28;20711;-54
2023/11/22 09:04:15;;;;;;;9.10;4.00;;;3.80;99.90;;;;;;5031144;28;20021;-54
2023/11/22 09:06:41;;;;;;;8.77;3.60;;;3.90;99.90;;;;;;5030873;28;20041;-54
2023/11/22 09:09:08;;;;;;;8.37;3.67;;;4.00;99.90;;;;;;5030271;28;20163;-52
2023/11/22 09:11:34;;;;;;;10.40;3.70;;;4.10;99.90;;;;;;5030449;28;20547;-55
2023/11/22 09:14:04;;;;;;;7.53;3.60;;;4.30;99.90;;;;;;5030734;28;20103;-55
2023/11/22 09:16:38;;;;;;;9.97;3.43;;;4.40;99.90;;;;;;5030696;28;20057;-54
2023/11/22 09:19:06;;;;;;;9.20;3.97;;;4.70;99.90;;;;;;5030307;28;20021;-54
2023/11/22 09:21:32;;;;;;;7.67;3.17;;;5.10;99.90;;;;;;5030744;28;20029;-54
2023/11/22 09:23:59;;;;;;;7.70;3.90;;;5.70;99.90;;;;;;5030951;28;20393;-51
2023/11/22 09:26:24;;;;;;;8.70;3.20;;;6.80;99.90;;;;;;5030923;28;20029;-48
2023/11/22 09:28:50;;;;;;;8.47;2.97;;;7.80;99.90;;;;;;5031283;28;20034;-52
2023/11/22 09:31:20;;;;;;;8.50;3.63;;;8.50;99.90;;;;;;5031756;28;20394;-48
2023/11/22 09:33:46;;;;;;;4.87;2.60;;;8.80;99.90;;;;;;5031671;28;20029;-48
2023/11/22 09:36:12;;;;;;;8.77;3.20;;;8.90;99.90;;;;;;5032693;28;20038;-51
2023/11/22 09:38:38;;;;;;;5.05;2.88;;;9.20;99.90;;;;;;5031860;28;20482;-48
2023/11/22 09:41:04;;;;;;;6.72;3.30;;;9.80;99.90;;;;;;5030902;28;20074;-49
2023/11/22 09:43:30;;;;;;;5.97;2.90;;;9.70;99.90;;;;;;5030991;28;20030;-48
2023/11/22 09:45:57;;;;;;;5.38;2.85;;;9.60;99.90;;;;;;5031560;28;20209;-54
2023/11/22 09:48:24;;;;;;;4.95;3.00;;;9.40;99.90;;;;;;5030804;28;20539;-54
2023/11/22 09:51:20;;;;;;;5.70;2.78;;;8.80;99.90;;;;;;5030583;28;20033;-50
2023/11/22 09:53:51;;;;;;;5.30;2.83;;;8.60;99.90;;;;;;5030900;28;20030;-51
2023/11/22 09:56:18;;;;;;;6.75;2.95;;;8.30;99.90;;;;;;5030547;28;20045;-48
2023/11/22 09:58:44;;;;;;;5.32;2.95;;;8.00;99.90;;;;;;5029983;28;20037;-49
2023/11/22 10:01:14;;;;;;;7.07;3.22;;;8.00;99.90;;;;;;5030415;28;20025;-51
2023/11/22 10:03:40;;;;;;;;;;;8.00;99.90;;;;;;5030870;28;20171;-51
2023/11/22 10:06:06;;;;;;;5.82;2.92;;;7.90;99.90;;;;;;5031390;28;19952;-52
2023/11/22 10:08:33;;;;;;;7.47;3.37;;;7.80;99.90;;;;;;5029949;28;20037;-50
2023/11/22 10:10:59;;;;;;;6.00;3.00;;;7.60;99.90;;;;;;5030410;28;20123;-50
2023/11/22 10:13:25;;;;;;;7.33;2.93;;;7.60;99.90;;;;;;5033428;28;20033;-54
2023/11/22 10:15:52;;;;;;;8.10;3.63;;;7.40;99.90;;;;;;5032670;28;20506;-54
2023/11/22 10:18:19;;;;;;;6.40;2.90;;;7.30;99.90;;;;;;5034479;28;20037;-53
2023/11/22 10:20:47;;;;;;;7.27;3.23;;;7.30;99.90;;;;;;5033865;28;20038;-51
2023/11/22 10:23:14;;;;;;;7.97;3.07;;;7.30;99.90;;;;;;5034052;28;20029;-53
2023/11/22 10:25:49;;;;;;;5.87;2.97;;;7.40;99.90;;;;;;5033899;28;20467;-50
2023/11/22 10:28:17;;;;;;;5.57;2.77;;;7.60;99.90;;;;;;5034142;28;20029;-50
2023/11/22 10:30:43;;;;;;;6.27;2.70;;;7.80;99.90;;;;;;5033441;28;20045;-51
2023/11/22 10:33:13;;;;;;;6.07;2.90;;;7.90;99.90;;;;;;5033803;28;20033;-51
2023/11/22 10:35:45;;;;;;;7.83;3.03;;;8.00;99.90;;;;;;5033940;28;20034;-54
2023/11/22 10:38:13;;;;;;;6.37;2.77;;;8.00;99.90;;;;;;5033544;28;20453;-49
2023/11/22 10:40:38;;;;;;;6.10;2.50;;;7.90;99.90;;;;;;5033133;28;20474;-54
2023/11/22 10:43:07;;;;;;;7.73;3.03;;;8.00;99.90;;;;;;5033630;28;20017;-55
2023/11/22 10:45:33;;;;;;;5.55;2.80;;;8.10;99.90;;;;;;5033694;28;20030;-52
2023/11/22 10:48:00;;;;;;;6.13;2.63;;;8.30;99.90;;;;;;5033490;28;20454;-54
2023/11/22 10:50:28;;;;;;;6.63;2.50;;;8.50;99.90;;;;;;5033234;28;20072;-54
2023/11/22 10:52:56;;;;;;;5.18;2.33;;;8.70;99.90;;;;;;5033283;28;20034;-53
2023/11/22 10:55:26;;;;;;;3.42;1.55;;;8.90;99.90;;;;;;5033670;28;20725;-54
2023/11/22 10:57:56;;;;;;;4.95;2.20;;;9.00;99.90;;;;;;5031930;28;20569;-51
2023/11/22 11:00:24;;;;;;;5.13;2.17;;;9.20;99.90;;;;;;5033005;28;20025;-54
2023/11/22 11:02:59;;;;;;;3.57;2.13;;;9.60;99.90;;;;;;5031997;28;20072;-54
2023/11/22 11:05:29;;;;;;;4.30;2.42;;;9.90;99.90;;;;;;5032426;28;20040;-55
2023/11/22 11:08:10;;;;;;;5.18;2.80;;;10.30;99.90;;;;;;5033416;28;20059;-54
2023/11/22 11:10:41;;;;;;;6.90;3.00;;;10.60;99.90;;;;;;5033296;28;20044;-55
2023/11/22 11:13:09;;;;;;;4.45;2.40;;;10.60;99.90;;;;;;5032183;28;20041;-54
2023/11/22 11:15:44;;;;;;;3.78;2.42;;;10.60;97.40;;;;;;5033163;28;20380;-53
2023/11/22 11:18:13;;;;;;;6.28;2.53;;;10.20;98.70;;;;;;5032865;28;20127;-54
2023/11/22 11:20:49;;;;;;;5.25;2.70;;;10.10;98.50;;;;;;5032963;28;20053;-54
2023/11/22 11:23:19;;;;;;;6.75;2.72;;;9.70;99.90;;;;;;5032531;28;20036;-54
2023/11/22 11:25:48;;;;;;;6.13;3.30;;;9.60;99.90;;;;;;5032680;28;20388;-53
2023/11/22 11:28:14;;;;;;;6.40;2.83;;;9.60;99.90;;;;;;5031545;28;20117;-54
2023/11/22 11:30:50;;;;;;;5.22;2.55;;;9.80;99.90;;;;;;5032379;28;20037;-54
2023/11/22 11:33:19;;;;;;;4.97;2.30;;;9.50;99.90;;;;;;5032741;28;20081;-53
2023/11/22 11:35:46;;;;;;;4.57;2.67;;;9.10;99.90;;;;;;5032633;28;20060;-55
2023/11/22 11:38:21;;;;;;;6.65;2.50;;;9.10;99.90;;;;;;5032591;28;20033;-54
2023/11/22 11:40:49;;;;;;;6.15;2.50;;;8.90;99.90;;;;;;5032428;28;20536;-51
2023/11/22 11:43:14;;;;;;;7.20;2.35;;;8.90;99.90;;;;;;5032548;28;20041;-54
2023/11/22 11:45:46;;;;;;;5.00;2.00;;;9.00;99.90;;;;;;5032425;28;20021;-55
2023/11/22 11:48:16;;;;;;;6.30;2.60;;;9.00;99.90;;;;;;5032340;28;20042;-56
2023/11/22 11:50:42;;;;;;;4.60;2.23;;;9.10;99.90;;;;;;5031951;28;20113;-55
2023/11/22 11:53:09;;;;;;;4.40;1.93;;;8.80;99.90;;;;;;5032488;28;20226;-54
2023/11/22 11:55:36;;;;;;;7.30;2.30;;;8.50;99.90;;;;;;5032218;28;20029;-54
2023/11/22 11:58:07;;;;;;;6.07;2.50;;;8.40;99.90;;;;;;5032099;28;20042;-56
2023/11/22 12:00:33;;;;;;;5.03;2.20;;;8.40;99.90;;;;;;5031872;28;20033;-51
2023/11/22 12:02:59;;;;;;;3.70;2.00;;;8.40;99.90;;;;;;5032279;28;20025;-51
2023/11/22 12:05:25;;;;;;;4.83;2.00;;;8.30;99.90;;;;;;5032135;28;20034;-53
2023/11/22 12:07:50;;;;;;;2.57;1.67;;;8.30;99.90;;;;;;5032093;28;20061;-54
2023/11/22 12:10:16;;;;;;;4.27;1.70;;;8.20;99.90;;;;;;5031577;28;20033;-53
2023/11/22 12:12:44;;;;;;;3.97;1.80;;;8.20;99.90;;;;;;5032265;28;20037;-55
2023/11/22 12:15:10;;;;;;;6.00;1.97;;;8.30;99.90;;;;;;5032288;28;20116;-57
2023/11/22 12:17:36;;;;;;;5.53;2.37;;;8.40;99.90;;;;;;5031884;28;20037;-53
2023/11/22 12:20:17;;;;;;;6.03;2.53;;;8.70;99.90;;;;;;5031392;28;20026;-52
2023/11/22 12:22:46;;;;;;;3.60;1.47;;;9.20;99.50;;;;;;5031804;28;20101;-53
2023/11/22 12:25:15;;;;;;;;;;;10.20;99.10;;;;;;5030837;28;20038;-55
2023/11/22 12:27:45;;;;;;;5.32;1.80;;;11.50;97.10;;;;;;5031857;28;19916;-53
2023/11/22 12:30:28;;;;;;;5.72;2.10;;;12.90;94.50;;;;;;5031234;28;20076;-55
2023/11/22 12:32:54;;;;;;;5.13;2.03;;;14.40;91.80;;;;;;5031510;28;20037;-54
2023/11/22 12:35:19;;;;;;;3.63;1.90;;;15.70;83.50;;;;;;5031338;28;20102;-51
2023/11/22 12:37:46;;;;;;;2.78;1.38;;;16.00;81.70;;;;;;5031272;28;20389;-53
2023/11/22 12:40:13;;;;;;;2.40;1.40;;;16.30;71.20;;;;;;5031143;28;20596;-54
2023/11/22 12:42:49;;;;;;;3.00;1.45;;;16.80;70.20;;;;;;5031658;28;20029;-50
2023/11/22 12:45:19;;;;;;;2.55;1.30;;;16.90;70.50;;;;;;5031612;28;20033;-54
2023/11/22 12:47:47;;;;;;;4.28;1.40;;;16.80;71.10;;;;;;5031476;28;20117;-52
2023/11/22 12:50:30;;;;;;;2.78;1.05;;;16.40;70.90;;;;;;5030816;28;20025;-54